Time;durP1;ratioP1;P1;durP2;ratioP2;P2;SDS_P1;SDS_P2;PMS_P1;PMS_P2;Temp;Humidity;BMP_temperature;BMP_pressure;BME280_temperature;BME280_humidity;BME280_pressure;Samples;Min_cycle;Max_cycle;Signal;HPM_P1;HPM_P2
2021/11/30 00:01:05;;;;;;;6.93;4.28;;;5.10;96.10;;;;;;4956500;29;20038;-91
2021/11/30 00:03:32;;;;;;;5.82;4.25;;;5.10;96.10;;;;;;4939281;29;20042;-90
2021/11/30 00:05:57;;;;;;;7.57;5.10;;;5.10;96.30;;;;;;4939132;29;20090;-91
2021/11/30 00:08:27;;;;;;;7.75;4.55;;;5.10;96.20;;;;;;4958314;28;20042;-90
2021/11/30 00:10:54;;;;;;;8.20;4.82;;;5.10;96.20;;;;;;4957348;28;20042;-90
2021/11/30 00:13:21;;;;;;;9.50;5.28;;;5.10;95.20;;;;;;4964980;28;20027;-91
2021/11/30 00:15:48;;;;;;;6.47;5.35;;;5.00;95.10;;;;;;4944251;28;20041;-90
2021/11/30 00:18:16;;;;;;;5.53;3.67;;;5.00;93.60;;;;;;4949283;28;20031;-90
2021/11/30 00:20:43;;;;;;;6.25;4.18;;;5.00;94.20;;;;;;4945121;28;20394;-89
2021/11/30 00:23:09;;;;;;;4.35;3.75;;;4.90;93.40;;;;;;4981422;28;20034;-89
2021/11/30 00:25:35;;;;;;;5.95;4.97;;;4.90;93.20;;;;;;4954632;28;20099;-90
2021/11/30 00:28:03;;;;;;;5.97;3.67;;;4.90;93.70;;;;;;4959751;28;20035;-90
2021/11/30 00:30:30;;;;;;;5.05;3.78;;;4.90;94.10;;;;;;4949047;29;20031;-91
2021/11/30 00:32:56;;;;;;;7.78;4.10;;;4.90;94.10;;;;;;4943354;28;20057;-90
2021/11/30 00:35:22;;;;;;;7.15;3.72;;;4.90;93.30;;;;;;4958049;28;20471;-91
2021/11/30 00:37:49;;;;;;;6.53;3.58;;;4.80;93.70;;;;;;4947702;28;20034;-91
2021/11/30 00:40:15;;;;;;;7.32;4.25;;;4.80;93.50;;;;;;4971391;28;20054;-91
2021/11/30 00:42:40;;;;;;;7.13;3.53;;;4.80;93.10;;;;;;4940640;29;20091;-91
2021/11/30 00:45:09;;;;;;;4.65;3.10;;;4.80;93.40;;;;;;4954405;29;20046;-90
2021/11/30 00:47:37;;;;;;;7.68;3.90;;;4.90;93.00;;;;;;4963849;29;20050;-91
2021/11/30 00:50:06;;;;;;;5.93;3.63;;;4.80;92.90;;;;;;4933608;29;20149;-90
2021/11/30 00:52:32;;;;;;;5.72;3.55;;;4.90;92.90;;;;;;4932997;29;20035;-90
2021/11/30 00:54:58;;;;;;;5.55;3.88;;;4.80;93.30;;;;;;4943468;29;20091;-91
2021/11/30 00:57:25;;;;;;;6.50;3.05;;;4.90;92.70;;;;;;4927694;29;20387;-90
2021/11/30 00:59:52;;;;;;;5.65;3.88;;;4.80;92.30;;;;;;4943687;29;20074;-90
2021/11/30 01:02:18;;;;;;;3.88;2.55;;;4.80;92.90;;;;;;4928825;29;20044;-90
2021/11/30 01:04:45;;;;;;;5.60;2.90;;;4.90;92.60;;;;;;4948581;29;20039;-92
2021/11/30 01:07:11;;;;;;;4.50;3.05;;;4.90;92.40;;;;;;4936843;29;20055;-90
2021/11/30 01:09:42;;;;;;;4.72;3.33;;;4.90;92.00;;;;;;4949948;29;20039;-91
2021/11/30 01:12:08;;;;;;;4.47;2.75;;;4.90;91.40;;;;;;4928645;29;20044;-90
2021/11/30 01:14:34;;;;;;;5.68;3.53;;;4.90;91.80;;;;;;4937440;29;20472;-90
2021/11/30 01:17:00;;;;;;;7.07;4.03;;;4.90;91.20;;;;;;4952855;29;20050;-91
2021/11/30 01:19:26;;;;;;;5.43;3.03;;;4.90;90.30;;;;;;4936358;29;20055;-90
2021/11/30 01:21:53;;;;;;;3.67;2.55;;;4.90;90.00;;;;;;4935607;29;20088;-90
2021/11/30 01:24:19;;;;;;;4.50;2.03;;;4.90;90.30;;;;;;4935253;29;20051;-91
2021/11/30 01:26:45;;;;;;;3.80;2.55;;;4.90;89.80;;;;;;4949858;29;20043;-91
2021/11/30 01:29:12;;;;;;;5.60;3.15;;;4.90;89.90;;;;;;4955878;29;20152;-91
2021/11/30 01:31:38;;;;;;;4.90;3.15;;;4.90;88.70;;;;;;4925279;29;20036;-90
2021/11/30 01:34:04;;;;;;;2.97;2.63;;;4.90;90.10;;;;;;4950467;29;20035;-91
2021/11/30 01:36:30;;;;;;;2.78;2.30;;;4.90;89.60;;;;;;4950812;28;20554;-90
2021/11/30 01:39:00;;;;;;;5.18;3.28;;;4.90;90.00;;;;;;4937972;29;20052;-90
2021/11/30 01:41:27;;;;;;;5.03;2.97;;;4.90;87.90;;;;;;4964903;28;20137;-90
2021/11/30 01:43:54;;;;;;;5.75;2.17;;;4.90;87.70;;;;;;4945143;29;20032;-90
2021/11/30 01:46:28;;;;;;;3.97;2.30;;;5.00;88.30;;;;;;4951010;28;20034;-90
2021/11/30 01:51:33;;;;;;;6.18;2.55;;;5.00;88.30;;;;;;4960293;29;20039;-90
2021/11/30 01:53:59;;;;;;;5.10;2.72;;;5.00;88.60;;;;;;4948169;28;20035;-90
2021/11/30 01:56:25;;;;;;;5.38;2.47;;;5.00;85.80;;;;;;4953892;28;20118;-91
2021/11/30 01:58:51;;;;;;;3.95;2.92;;;5.10;86.10;;;;;;4948995;29;20402;-90
2021/11/30 02:01:18;;;;;;;4.57;3.13;;;5.10;85.80;;;;;;4966534;28;20109;-90
2021/11/30 02:03:44;;;;;;;4.22;2.38;;;5.10;86.00;;;;;;4961859;28;20039;-90
2021/11/30 02:06:10;;;;;;;4.25;2.72;;;5.10;86.00;;;;;;4962574;29;20068;-90
2021/11/30 02:08:35;;;;;;;3.92;2.45;;;5.10;86.50;;;;;;4952771;29;20062;-91
2021/11/30 02:11:01;;;;;;;4.75;2.45;;;5.10;85.90;;;;;;4966408;28;20038;-91
2021/11/30 02:13:27;;;;;;;2.75;2.13;;;5.10;85.60;;;;;;4961210;29;20116;-90
2021/11/30 02:15:58;;;;;;;4.10;2.10;;;5.10;86.00;;;;;;4960365;28;20038;-90
2021/11/30 02:18:24;;;;;;;8.90;2.33;;;5.10;84.60;;;;;;4950703;28;20490;-90
2021/11/30 02:20:56;;;;;;;3.53;2.00;;;5.20;85.60;;;;;;4961365;28;20046;-90
2021/11/30 02:23:58;;;;;;;4.75;2.35;;;5.10;84.40;;;;;;4960657;28;20394;-90
2021/11/30 02:26:25;;;;;;;2.10;1.63;;;5.20;85.80;;;;;;4955442;29;20477;-90
2021/11/30 02:28:51;;;;;;;3.08;1.83;;;5.20;84.40;;;;;;4957658;28;20035;-90
2021/11/30 02:31:19;;;;;;;2.65;2.17;;;5.20;83.40;;;;;;4959924;28;20030;-91
2021/11/30 02:33:46;;;;;;;3.05;2.28;;;5.20;82.10;;;;;;4960550;28;20382;-91
2021/11/30 02:36:28;;;;;;;2.35;2.10;;;5.20;79.90;;;;;;4944937;28;20050;-90
2021/11/30 02:38:55;;;;;;;2.75;1.90;;;5.20;79.20;;;;;;4959970;28;20042;-90
2021/11/30 02:41:22;;;;;;;2.88;1.98;;;5.20;81.40;;;;;;4959649;28;20061;-91
2021/11/30 02:43:47;;;;;;;3.97;1.73;;;5.20;80.40;;;;;;4960353;28;20043;-91
2021/11/30 02:46:36;;;;;;;3.33;1.95;;;5.20;80.70;;;;;;4955972;29;20035;-91
2021/11/30 02:49:05;;;;;;;4.05;2.22;;;5.20;80.80;;;;;;4943262;28;20035;-91
2021/11/30 02:51:32;;;;;;;2.40;2.03;;;5.20;78.90;;;;;;4944863;29;20039;-91
2021/11/30 02:54:00;;;;;;;3.67;1.83;;;5.10;80.80;;;;;;4940921;28;20031;-90
2021/11/30 02:56:27;;;;;;;5.15;2.72;;;5.20;80.70;;;;;;4942247;29;20098;-90
2021/11/30 02:58:53;;;;;;;2.97;2.28;;;5.20;80.20;;;;;;4942406;28;20043;-90
2021/11/30 03:01:19;;;;;;;2.70;2.10;;;5.20;81.10;;;;;;4959020;28;20493;-91
2021/11/30 03:03:45;;;;;;;3.38;2.20;;;5.20;81.70;;;;;;4974773;28;20066;-91
2021/11/30 03:06:10;;;;;;;4.40;2.70;;;5.20;82.30;;;;;;4961441;28;20478;-90
2021/11/30 03:08:40;;;;;;;2.22;1.48;;;5.20;82.10;;;;;;4958944;28;20047;-91
2021/11/30 03:11:08;;;;;;;2.72;1.80;;;5.20;82.80;;;;;;4959683;28;20073;-90
2021/11/30 03:13:33;;;;;;;8.63;2.15;;;5.20;82.50;;;;;;4951506;28;20081;-90
2021/11/30 03:15:59;;;;;;;6.57;1.77;;;5.20;82.10;;;;;;4959277;28;20385;-91
2021/11/30 03:18:25;;;;;;;3.20;2.35;;;5.20;81.90;;;;;;4959082;28;20482;-91
2021/11/30 03:20:52;;;;;;;3.92;2.55;;;5.20;82.60;;;;;;4949964;29;20047;-90
2021/11/30 03:23:18;;;;;;;3.75;2.33;;;5.20;81.60;;;;;;4940254;29;20039;-91
2021/11/30 03:25:44;;;;;;;5.03;2.88;;;5.20;82.90;;;;;;4939829;29;20087;-90
2021/11/30 03:28:10;;;;;;;2.83;2.00;;;5.20;82.20;;;;;;4958456;28;20129;-90
2021/11/30 03:30:38;;;;;;;2.85;1.73;;;5.20;81.40;;;;;;4953722;29;20596;-91
2021/11/30 03:35:48;;;;;;;;;;;5.20;82.30;;;;;;4984962;28;20093;-91
2021/11/30 03:38:14;;;;;;;3.58;2.40;;;5.20;81.30;;;;;;4959758;28;19910;-91
2021/11/30 03:40:40;;;;;;;2.45;1.80;;;5.20;82.30;;;;;;4963621;28;20046;-91
2021/11/30 03:43:06;;;;;;;3.90;2.05;;;5.20;80.70;;;;;;4954451;28;20046;-91
2021/11/30 03:45:33;;;;;;;2.08;1.60;;;5.20;80.80;;;;;;4947974;29;20050;-91
2021/11/30 03:47:59;;;;;;;2.90;1.90;;;5.20;80.90;;;;;;4940964;29;20109;-91
2021/11/30 03:50:25;;;;;;;3.80;2.33;;;5.20;80.70;;;;;;4939484;29;20038;-91
2021/11/30 03:52:50;;;;;;;5.32;2.35;;;5.20;80.40;;;;;;4939622;29;20038;-91
2021/11/30 03:55:17;;;;;;;5.13;2.60;;;5.20;80.30;;;;;;4939599;29;20035;-91
2021/11/30 03:57:43;;;;;;;6.10;2.35;;;5.20;80.50;;;;;;4939844;29;20054;-90
2021/11/30 04:00:11;;;;;;;2.78;2.15;;;5.20;81.60;;;;;;4939457;29;20486;-90
2021/11/30 04:02:40;;;;;;;3.83;2.10;;;5.20;82.30;;;;;;4963244;28;20039;-91
2021/11/30 04:05:08;;;;;;;4.72;2.30;;;5.20;82.80;;;;;;4953634;28;20503;-90
2021/11/30 04:07:34;;;;;;;5.88;2.67;;;5.20;82.70;;;;;;4956762;28;20077;-90
2021/11/30 04:10:01;;;;;;;4.80;2.05;;;5.20;82.10;;;;;;4949936;28;20070;-90
2021/11/30 04:12:27;;;;;;;5.63;2.67;;;5.20;81.90;;;;;;4957471;28;20039;-91
2021/11/30 04:14:53;;;;;;;4.78;3.05;;;5.20;82.40;;;;;;4957981;28;20102;-91
2021/11/30 04:17:19;;;;;;;3.10;2.10;;;5.20;81.20;;;;;;4950867;29;20082;-90
2021/11/30 04:19:46;;;;;;;4.70;2.35;;;5.20;81.70;;;;;;4939192;28;20051;-91
2021/11/30 04:22:12;;;;;;;4.45;2.47;;;5.20;81.30;;;;;;4945950;29;20059;-90
2021/11/30 04:24:40;;;;;;;4.25;2.80;;;5.20;81.60;;;;;;4946535;28;20133;-91
2021/11/30 04:27:06;;;;;;;4.78;3.70;;;5.10;81.40;;;;;;4939011;28;20040;-91
2021/11/30 04:29:31;;;;;;;3.20;2.83;;;5.10;80.50;;;;;;4947167;29;20035;-91
2021/11/30 04:31:57;;;;;;;3.90;2.53;;;5.10;81.50;;;;;;4954199;28;20538;-91
2021/11/30 04:34:23;;;;;;;3.03;1.73;;;5.20;80.70;;;;;;4965818;28;20050;-90
2021/11/30 04:36:49;;;;;;;4.18;2.13;;;5.20;81.10;;;;;;4947344;28;20043;-91
2021/11/30 04:39:15;;;;;;;5.88;3.45;;;5.20;80.60;;;;;;4939299;29;20048;-91
2021/11/30 04:41:42;;;;;;;6.05;3.55;;;5.20;80.80;;;;;;4938855;29;20458;-91
2021/11/30 04:44:10;;;;;;;4.97;2.20;;;5.20;81.60;;;;;;4942354;28;20398;-92
2021/11/30 04:46:54;;;;;;;5.90;2.47;;;5.20;81.80;;;;;;4950713;29;20043;-91
2021/11/30 04:52:03;;;;;;;3.60;2.20;;;5.10;79.70;;;;;;4971512;28;20081;-91
2021/11/30 04:54:29;;;;;;;4.43;3.45;;;5.10;80.20;;;;;;4951196;28;20055;-91
2021/11/30 04:56:56;;;;;;;4.10;2.38;;;5.00;79.60;;;;;;4956924;28;20045;-91
2021/11/30 04:59:23;;;;;;;4.57;2.55;;;5.00;79.40;;;;;;4933512;28;20055;-91
2021/11/30 05:01:49;;;;;;;2.95;2.20;;;5.00;78.90;;;;;;4953894;29;20058;-91
2021/11/30 05:04:16;;;;;;;3.67;2.33;;;5.00;78.70;;;;;;4959302;28;20035;-92
2021/11/30 05:06:46;;;;;;;4.68;3.08;;;5.00;79.70;;;;;;4963405;29;20039;-90
2021/11/30 05:09:12;;;;;;;4.97;2.83;;;4.90;79.20;;;;;;4970362;28;20039;-93
2021/11/30 05:11:38;;;;;;;4.07;2.55;;;4.90;78.90;;;;;;4960122;28;20039;-91
2021/11/30 05:14:07;;;;;;;4.25;2.10;;;4.80;79.00;;;;;;4943322;29;20032;-92
2021/11/30 05:16:33;;;;;;;5.75;2.63;;;4.80;79.00;;;;;;4940708;28;20043;-92
2021/11/30 05:18:59;;;;;;;2.53;1.90;;;4.80;79.10;;;;;;4948862;29;20055;-91
2021/11/30 05:21:26;;;;;;;3.13;2.60;;;4.80;79.10;;;;;;4975880;28;20117;-91
2021/11/30 05:23:54;;;;;;;3.50;2.13;;;4.80;77.80;;;;;;4966165;28;20035;-91
2021/11/30 05:26:20;;;;;;;4.15;2.08;;;4.70;78.40;;;;;;4949946;28;20034;-91
2021/11/30 05:28:47;;;;;;;2.90;1.83;;;4.70;78.60;;;;;;4943694;28;20398;-90
2021/11/30 05:31:14;;;;;;;2.67;2.10;;;4.70;78.70;;;;;;4958014;28;20512;-90
2021/11/30 05:33:40;;;;;;;4.88;1.85;;;4.70;78.10;;;;;;4963780;28;20050;-90
2021/11/30 05:36:06;;;;;;;2.40;1.88;;;4.70;78.50;;;;;;4955290;28;20481;-91
2021/11/30 05:38:34;;;;;;;5.38;2.47;;;4.70;78.30;;;;;;4961779;28;20053;-91
2021/11/30 05:41:00;;;;;;;4.18;2.28;;;4.70;77.70;;;;;;4957829;28;20047;-90
2021/11/30 05:43:26;;;;;;;4.13;2.55;;;4.70;78.20;;;;;;4942185;29;20518;-90
2021/11/30 05:45:52;;;;;;;3.38;2.30;;;4.70;78.60;;;;;;4950592;28;20066;-90
2021/11/30 05:48:18;;;;;;;2.70;2.25;;;4.70;77.50;;;;;;4941897;29;20438;-91
2021/11/30 05:50:43;;;;;;;3.05;2.15;;;4.70;77.10;;;;;;4973705;28;20042;-90
2021/11/30 05:53:09;;;;;;;6.45;2.30;;;4.70;78.10;;;;;;4941245;29;20043;-90
2021/11/30 05:55:36;;;;;;;4.47;1.95;;;4.80;77.00;;;;;;4941544;29;20062;-90
2021/11/30 05:58:02;;;;;;;2.35;1.88;;;4.80;76.30;;;;;;4959571;28;20042;-90
2021/11/30 06:00:30;;;;;;;4.35;2.30;;;4.80;76.60;;;;;;4952101;28;20104;-90
2021/11/30 06:03:05;;;;;;;3.60;2.47;;;4.80;76.20;;;;;;4944362;29;20094;-90
2021/11/30 06:05:33;;;;;;;3.80;1.92;;;4.80;76.30;;;;;;4949546;29;20486;-90
2021/11/30 06:08:00;;;;;;;5.85;2.85;;;4.80;77.20;;;;;;4942541;29;20044;-90
2021/11/30 06:10:26;;;;;;;4.18;2.60;;;4.80;77.20;;;;;;4950899;28;20121;-90
2021/11/30 06:12:53;;;;;;;3.88;2.00;;;4.80;77.50;;;;;;4960248;28;20038;-91
2021/11/30 06:15:20;;;;;;;5.00;2.30;;;4.80;76.80;;;;;;4958677;28;20077;-91
2021/11/30 06:17:49;;;;;;;3.22;1.88;;;4.80;77.00;;;;;;4970673;28;20505;-90
2021/11/30 06:20:21;;;;;;;3.67;2.30;;;4.80;77.70;;;;;;4970297;28;20047;-89
2021/11/30 06:22:49;;;;;;;3.00;1.77;;;4.90;76.80;;;;;;4959150;28;20066;-89
2021/11/30 06:25:15;;;;;;;3.88;2.25;;;4.90;77.30;;;;;;4957141;28;20035;-90
2021/11/30 06:27:48;;;;;;;4.03;2.38;;;4.90;77.30;;;;;;4948327;28;20486;-91
2021/11/30 06:30:14;;;;;;;2.83;2.53;;;4.90;76.80;;;;;;4948044;29;20054;-90
2021/11/30 06:32:43;;;;;;;4.65;2.63;;;4.90;76.10;;;;;;4957492;28;20035;-91
2021/11/30 06:35:09;;;;;;;2.28;2.08;;;5.00;75.50;;;;;;4955617;28;20051;-89
2021/11/30 06:37:35;;;;;;;3.88;2.38;;;5.00;75.60;;;;;;4957595;28;20027;-91
2021/11/30 06:40:01;;;;;;;4.07;2.83;;;4.90;75.50;;;;;;4953917;28;20455;-91
2021/11/30 06:42:27;;;;;;;4.18;2.30;;;4.90;75.00;;;;;;4951742;29;20194;-92
2021/11/30 06:44:53;;;;;;;4.25;2.78;;;4.90;75.10;;;;;;4938561;29;20043;-91
2021/11/30 06:47:19;;;;;;;5.47;2.65;;;4.90;75.10;;;;;;4957681;29;20047;-91
2021/11/30 06:49:45;;;;;;;4.05;2.60;;;4.90;75.30;;;;;;4958407;28;20049;-89
2021/11/30 06:52:13;;;;;;;4.18;2.60;;;4.90;76.30;;;;;;4952537;29;20054;-91
2021/11/30 06:54:44;;;;;;;5.38;2.53;;;4.90;75.60;;;;;;4952288;28;20719;-91
2021/11/30 06:57:14;;;;;;;3.15;1.85;;;4.90;76.10;;;;;;4949833;29;20051;-91
2021/11/30 06:59:41;;;;;;;5.18;3.03;;;4.90;76.10;;;;;;4908121;29;20581;-91
2021/11/30 07:02:12;;;;;;;4.57;2.88;;;4.90;75.90;;;;;;4946586;29;21336;-92
2021/11/30 07:04:47;;;;;;;4.03;2.17;;;4.90;75.90;;;;;;4950500;29;20049;-91
2021/11/30 07:07:46;;;;;;;6.20;3.65;;;4.90;76.40;;;;;;4950556;29;20055;-91
2021/11/30 07:10:33;;;;;;;5.05;2.70;;;4.90;75.60;;;;;;4930120;29;20050;-91
2021/11/30 07:15:38;;;;;;;4.07;2.53;;;4.90;75.70;;;;;;4954918;28;20321;-91
2021/11/30 07:18:04;;;;;;;5.15;3.17;;;4.90;76.50;;;;;;4935229;29;20102;-91
2021/11/30 07:20:30;;;;;;;5.03;3.28;;;4.90;76.40;;;;;;4931908;29;20069;-92
2021/11/30 07:22:58;;;;;;;3.80;2.38;;;4.90;76.30;;;;;;4943745;29;20042;-91
2021/11/30 07:25:28;;;;;;;4.82;3.00;;;5.00;76.90;;;;;;4951955;29;20066;-91
2021/11/30 07:27:55;;;;;;;4.82;2.53;;;5.00;76.40;;;;;;4949032;29;20039;-90
2021/11/30 07:30:22;;;;;;;7.97;4.40;;;5.00;76.10;;;;;;4943836;29;20067;-91
2021/11/30 07:32:47;;;;;;;4.55;3.35;;;5.00;76.20;;;;;;4955935;29;20031;-91
2021/11/30 07:35:20;;;;;;;3.45;2.40;;;5.10;75.90;;;;;;4948140;29;20035;-89
2021/11/30 07:37:47;;;;;;;6.35;3.97;;;5.10;76.00;;;;;;4944398;29;20040;-90
2021/11/30 07:40:17;;;;;;;5.90;3.20;;;5.10;76.00;;;;;;4948657;28;20051;-92
2021/11/30 07:42:43;;;;;;;5.53;3.35;;;5.20;75.10;;;;;;4925623;29;20043;-90
2021/11/30 07:45:10;;;;;;;7.38;3.55;;;5.10;74.30;;;;;;4953633;29;20082;-90
2021/11/30 07:47:38;;;;;;;5.97;3.67;;;5.10;74.60;;;;;;4945210;29;20040;-90
2021/11/30 07:50:06;;;;;;;8.20;3.38;;;5.20;75.50;;;;;;4940268;29;20098;-91
2021/11/30 07:52:37;;;;;;;5.18;3.15;;;5.30;75.30;;;;;;4935904;29;20054;-91
2021/11/30 07:55:05;;;;;;;3.95;3.40;;;5.40;75.20;;;;;;4957541;29;20055;-91
2021/11/30 07:57:32;;;;;;;4.97;3.17;;;5.30;73.70;;;;;;4946359;29;20031;-91
2021/11/30 07:59:58;;;;;;;4.32;2.80;;;5.40;73.90;;;;;;4963419;29;20047;-91
2021/11/30 08:02:23;;;;;;;5.90;2.92;;;5.40;74.50;;;;;;4963541;29;20039;-91
2021/11/30 08:04:51;;;;;;;3.10;2.53;;;5.40;73.30;;;;;;4955765;29;20046;-91
2021/11/30 08:07:18;;;;;;;6.25;2.75;;;5.40;74.20;;;;;;4956397;29;20043;-91
2021/11/30 08:09:45;;;;;;;5.57;2.35;;;5.50;72.90;;;;;;4966873;29;20082;-91
2021/11/30 08:12:13;;;;;;;4.20;2.38;;;5.50;71.80;;;;;;4942441;29;20040;-91
2021/11/30 08:14:39;;;;;;;2.47;1.60;;;5.40;71.90;;;;;;4937929;29;20039;-91
2021/11/30 08:17:10;;;;;;;3.80;3.03;;;5.40;72.10;;;;;;4947970;29;20046;-91
2021/11/30 08:19:35;;;;;;;4.03;2.53;;;5.40;73.50;;;;;;4939734;29;20059;-91
2021/11/30 08:22:02;;;;;;;4.47;2.83;;;5.50;72.90;;;;;;4940127;29;20061;-90
2021/11/30 08:24:28;;;;;;;3.70;2.25;;;5.60;72.70;;;;;;4939790;29;20035;-90
2021/11/30 08:26:53;;;;;;;5.45;3.00;;;5.60;71.90;;;;;;4949251;29;20042;-91
2021/11/30 08:29:19;;;;;;;4.20;2.40;;;5.60;70.60;;;;;;4956897;28;20534;-90
2021/11/30 08:31:45;;;;;;;4.68;2.22;;;5.60;70.70;;;;;;4938939;29;20039;-90
2021/11/30 08:34:11;;;;;;;3.50;2.72;;;5.50;71.00;;;;;;4920149;29;20066;-91
2021/11/30 08:36:37;;;;;;;2.60;1.90;;;5.60;69.20;;;;;;4935774;29;20035;-91
2021/11/30 08:39:03;;;;;;;2.95;1.67;;;5.70;69.90;;;;;;4936033;29;20044;-90
2021/11/30 08:41:29;;;;;;;3.17;1.85;;;5.70;66.20;;;;;;4948896;28;20051;-90
2021/11/30 08:43:55;;;;;;;1.33;1.20;;;5.70;66.70;;;;;;4940473;28;20085;-90
2021/11/30 08:46:21;;;;;;;2.45;1.40;;;5.80;67.10;;;;;;4957764;28;20501;-90
2021/11/30 08:48:47;;;;;;;10.27;1.83;;;5.80;65.90;;;;;;4955603;28;20150;-90
2021/11/30 08:51:13;;;;;;;1.67;1.45;;;5.70;65.70;;;;;;4946214;28;20042;-90
2021/11/30 08:53:39;;;;;;;3.25;1.80;;;5.80;66.70;;;;;;4963270;28;20057;-91
2021/11/30 08:56:06;;;;;;;4.85;1.70;;;5.80;66.20;;;;;;4957246;28;20539;-91
2021/11/30 08:58:33;;;;;;;1.77;1.35;;;5.80;66.00;;;;;;4946117;29;20043;-90
2021/11/30 09:01:00;;;;;;;5.00;2.08;;;5.70;64.20;;;;;;4962849;28;20039;-91
2021/11/30 09:03:26;;;;;;;1.52;1.40;;;5.70;64.70;;;;;;4956102;29;20550;-92
2021/11/30 09:05:53;;;;;;;2.08;1.88;;;5.70;65.40;;;;;;4950361;28;20039;-90
2021/11/30 09:08:18;;;;;;;3.58;1.63;;;5.80;66.30;;;;;;4949586;28;20039;-91
2021/11/30 09:10:44;;;;;;;1.83;1.40;;;5.80;65.40;;;;;;4959501;28;20472;-91
2021/11/30 09:13:10;;;;;;;3.20;2.10;;;5.80;64.80;;;;;;4957234;28;20065;-91
2021/11/30 09:15:38;;;;;;;3.83;2.38;;;5.80;65.20;;;;;;4959731;28;20038;-91
2021/11/30 09:18:04;;;;;;;2.92;1.88;;;5.90;65.60;;;;;;4949671;29;20094;-91
2021/11/30 09:20:31;;;;;;;4.47;2.40;;;5.90;65.50;;;;;;4941842;29;20055;-91
2021/11/30 09:22:57;;;;;;;2.13;1.52;;;5.90;66.00;;;;;;4951608;29;20039;-91
2021/11/30 09:25:29;;;;;;;2.47;2.25;;;5.90;65.90;;;;;;4980667;28;20045;-90
2021/11/30 09:27:57;;;;;;;8.93;2.20;;;6.00;64.30;;;;;;4964315;28;20086;-91
2021/11/30 09:30:24;;;;;;;2.00;1.70;;;5.90;63.20;;;;;;4974326;28;20022;-91
2021/11/30 09:32:50;;;;;;;2.53;1.75;;;5.90;63.60;;;;;;4963322;29;20078;-91
2021/11/30 09:35:22;;;;;;;2.45;2.17;;;5.90;64.80;;;;;;4960960;28;20126;-90
2021/11/30 09:37:51;;;;;;;4.80;2.40;;;6.00;65.30;;;;;;4976036;28;20035;-89
2021/11/30 09:40:21;;;;;;;3.58;2.83;;;6.00;64.60;;;;;;4946063;29;20439;-89
2021/11/30 09:42:48;;;;;;;4.97;2.53;;;6.00;64.10;;;;;;4945097;29;20035;-90
2021/11/30 09:45:15;;;;;;;3.03;2.05;;;6.00;64.70;;;;;;4944197;29;20062;-90
2021/11/30 09:47:42;;;;;;;6.45;1.80;;;5.90;64.70;;;;;;4955669;29;20039;-90
2021/11/30 09:50:12;;;;;;;3.72;2.38;;;5.90;65.50;;;;;;4954112;29;20035;-92
2021/11/30 09:52:38;;;;;;;4.10;2.47;;;6.00;65.60;;;;;;4950422;29;20067;-92
2021/11/30 09:55:16;;;;;;;4.80;3.03;;;6.00;64.90;;;;;;4950712;29;20031;-91
2021/11/30 09:57:46;;;;;;;3.47;2.80;;;6.00;65.30;;;;;;4954100;29;20020;-91
2021/11/30 10:00:14;;;;;;;2.65;2.35;;;6.10;65.70;;;;;;4935132;29;20051;-92
2021/11/30 10:02:41;;;;;;;2.97;1.92;;;6.10;65.50;;;;;;4941852;29;20039;-92
2021/11/30 10:05:08;;;;;;;2.78;2.42;;;6.10;65.90;;;;;;4964755;28;20046;-92
2021/11/30 10:07:49;;;;;;;6.40;3.15;;;6.00;65.50;;;;;;4945916;29;20035;-92
2021/11/30 10:26:09;;;;;;;3.17;2.22;;;6.00;64.90;;;;;;4949801;28;20052;-92
2021/11/30 10:28:35;;;;;;;3.65;2.03;;;6.00;64.80;;;;;;4903714;29;20075;-92
2021/11/30 10:31:01;;;;;;;5.35;2.15;;;5.90;64.40;;;;;;4919210;29;20040;-93
2021/11/30 10:33:28;;;;;;;2.65;1.85;;;5.90;65.60;;;;;;4891478;29;20024;-93
2021/11/30 10:35:57;;;;;;;4.80;2.70;;;5.90;65.20;;;;;;4919630;29;20042;-94
2021/11/30 10:38:44;;;;;;;4.05;2.30;;;5.90;65.40;;;;;;4911772;29;20044;-91
2021/11/30 10:41:18;;;;;;;3.63;2.28;;;6.00;65.60;;;;;;4915538;29;20032;-91
2021/11/30 10:44:00;;;;;;;5.45;2.70;;;6.00;65.60;;;;;;4910185;29;20421;-92
2021/11/30 10:46:34;;;;;;;2.60;1.75;;;6.10;65.20;;;;;;4911999;29;20063;-92
2021/11/30 10:49:00;;;;;;;4.50;2.38;;;6.00;64.60;;;;;;4895828;29;20095;-91
2021/11/30 10:51:30;;;;;;;4.57;2.13;;;5.90;64.60;;;;;;4913981;29;20036;-93
2021/11/30 10:54:00;;;;;;;7.35;3.35;;;5.90;65.50;;;;;;4923054;29;20043;-93
2021/11/30 10:56:26;;;;;;;3.72;2.47;;;5.90;65.40;;;;;;4905683;29;20048;-92
2021/11/30 10:58:55;;;;;;;4.60;2.65;;;5.90;65.40;;;;;;4924616;29;20277;-92
2021/11/30 11:01:22;;;;;;;4.60;2.75;;;6.00;66.40;;;;;;4904914;29;20111;-93
2021/11/30 11:04:32;;;;;;;3.60;2.53;;;6.00;66.60;;;;;;4938330;29;20071;-92
2021/11/30 11:07:18;;;;;;;4.28;2.05;;;6.00;65.70;;;;;;4965015;23;20055;-94
2021/11/30 11:09:50;;;;;;;3.22;1.85;;;6.00;65.30;;;;;;5019343;23;20054;-93
2021/11/30 11:12:35;;;;;;;4.90;2.40;;;6.00;64.30;;;;;;5245430;23;20054;-92
2021/11/30 11:15:08;;;;;;;3.97;2.57;;;6.00;65.30;;;;;;4962440;28;20114;-93
2021/11/30 11:17:48;;;;;;;2.10;1.85;;;6.00;64.50;;;;;;5019796;28;20058;-94
2021/11/30 11:20:20;;;;;;;3.03;2.33;;;5.90;63.80;;;;;;4982752;28;20052;-93
2021/11/30 11:22:53;;;;;;;4.40;2.10;;;5.80;64.00;;;;;;4990951;28;20053;-93
2021/11/30 11:25:53;;;;;;;3.22;2.47;;;5.80;64.90;;;;;;5121771;27;20418;-93
2021/11/30 11:28:23;;;;;;;5.35;2.80;;;5.70;65.50;;;;;;5099525;28;20044;-94
2021/11/30 11:30:52;;;;;;;3.17;2.00;;;5.70;65.40;;;;;;5098697;28;20114;-92
2021/11/30 11:33:21;;;;;;;4.97;2.78;;;5.70;65.40;;;;;;5073810;28;20067;-92
2021/11/30 11:35:51;;;;;;;2.45;1.80;;;5.70;65.70;;;;;;5099501;28;20020;-94
2021/11/30 11:38:38;;;;;;;;;;;;;;;;;;;;;
2021/11/30 11:43:46;;;;;;;3.08;2.25;;;5.70;65.70;;;;;;5131852;23;20050;-91
2021/11/30 11:46:16;;;;;;;4.03;3.22;;;5.70;66.20;;;;;;5005371;28;20049;-92
2021/11/30 11:52:51;;;;;;;3.33;2.22;;;5.80;65.40;;;;;;4948547;28;20050;-93
2021/11/30 11:55:27;;;;;;;4.03;2.28;;;5.70;65.20;;;;;;5002911;28;20034;-90
2021/11/30 11:58:09;;;;;;;4.32;2.85;;;5.60;65.40;;;;;;5009889;28;20046;-89
2021/11/30 12:00:48;;;;;;;4.22;2.45;;;5.60;66.10;;;;;;4981421;28;20034;-91
2021/11/30 12:03:15;;;;;;;4.03;2.08;;;5.60;65.80;;;;;;4995679;28;20037;-90
2021/11/30 12:06:17;;;;;;;4.82;2.28;;;5.60;66.40;;;;;;5022215;28;20113;-92
2021/11/30 12:09:21;;;;;;;3.28;1.67;;;5.60;64.40;;;;;;5011717;28;20026;-91
2021/11/30 12:11:50;;;;;;;6.72;2.20;;;5.60;64.50;;;;;;5005952;28;20090;-91
2021/11/30 12:14:43;;;;;;;3.45;2.40;;;5.60;64.50;;;;;;5017769;28;20042;-91
2021/11/30 12:17:44;;;;;;;3.90;2.13;;;5.60;64.90;;;;;;4996772;28;20058;-92
2021/11/30 12:20:12;;;;;;;7.38;2.58;;;5.60;64.40;;;;;;4996080;28;20039;-92
2021/11/30 12:28:03;;;;;;;1.92;1.45;;;5.70;64.60;;;;;;5013651;28;20045;-91
2021/11/30 12:30:52;;;;;;;2.92;2.35;;;5.70;64.30;;;;;;5008475;28;20015;-90
2021/11/30 12:33:22;;;;;;;3.15;1.75;;;5.70;63.80;;;;;;4999793;28;20126;-89
2021/11/30 12:39:13;;;;;;;3.58;1.90;;;5.70;61.30;;;;;;4940815;28;20034;-91
2021/11/30 12:41:41;;;;;;;2.42;1.58;;;5.60;61.70;;;;;;4982152;28;20019;-91
2021/11/30 12:44:17;;;;;;;4.45;2.20;;;5.50;62.00;;;;;;4978482;28;20035;-90
2021/11/30 12:46:55;;;;;;;3.08;2.13;;;5.50;62.30;;;;;;4981366;28;20109;-88
2021/11/30 12:49:32;;;;;;;2.63;2.38;;;5.50;62.30;;;;;;4980895;28;20027;-90
2021/11/30 12:52:19;;;;;;;5.60;2.13;;;5.40;61.90;;;;;;4963763;28;20038;-90
2021/11/30 12:55:13;;;;;;;4.03;1.95;;;5.40;61.50;;;;;;4982632;28;20035;-90
2021/11/30 12:57:44;;;;;;;4.35;2.78;;;5.40;62.70;;;;;;4981243;28;20050;-90
2021/11/30 13:00:31;;;;;;;4.38;1.80;;;5.40;63.10;;;;;;4976565;28;20026;-91
2021/11/30 13:03:22;;;;;;;6.05;2.30;;;5.40;62.70;;;;;;4985512;28;20488;-92
2021/11/30 13:05:59;;;;;;;3.90;2.17;;;5.40;63.10;;;;;;4978993;28;20085;-91
2021/11/30 13:08:55;;;;;;;1.85;1.70;;;5.40;62.60;;;;;;4979354;28;20080;-91
2021/11/30 13:11:28;;;;;;;3.97;1.88;;;5.40;63.00;;;;;;4977800;28;20077;-91
2021/11/30 13:14:03;;;;;;;2.67;2.17;;;5.40;63.30;;;;;;4962637;28;20093;-90
2021/11/30 13:16:35;;;;;;;4.43;2.53;;;5.40;63.40;;;;;;4969176;28;20031;-89
2021/11/30 13:19:06;;;;;;;4.82;2.13;;;5.40;63.30;;;;;;4981616;28;20057;-91
2021/11/30 13:21:43;;;;;;;3.97;2.55;;;5.40;64.10;;;;;;4978866;28;20050;-89
2021/11/30 13:24:14;;;;;;;3.28;1.63;;;5.40;65.10;;;;;;4977412;28;20085;-91
2021/11/30 13:26:41;;;;;;;2.97;1.67;;;5.50;64.80;;;;;;4972084;28;20051;-89
2021/11/30 13:29:20;;;;;;;4.47;2.33;;;5.50;64.90;;;;;;4971700;28;20107;-90
2021/11/30 13:31:47;;;;;;;4.40;1.80;;;5.50;65.00;;;;;;4967787;28;20030;-91
2021/11/30 13:34:15;;;;;;;5.50;2.88;;;5.50;65.30;;;;;;4968976;28;20041;-89
2021/11/30 13:37:13;;;;;;;4.80;2.58;;;5.50;65.20;;;;;;4981699;28;20110;-89
2021/11/30 13:39:45;;;;;;;6.07;3.35;;;5.50;65.50;;;;;;4957413;28;20382;-90
2021/11/30 13:42:12;;;;;;;5.57;3.10;;;5.50;65.30;;;;;;4977354;28;20022;-92
2021/11/30 13:44:38;;;;;;;2.80;2.33;;;5.40;65.20;;;;;;4959734;28;20096;-90
2021/11/30 13:47:09;;;;;;;5.72;2.70;;;5.40;65.10;;;;;;4959257;28;20042;-90
2021/11/30 13:49:41;;;;;;;5.82;3.67;;;5.30;65.60;;;;;;4940458;29;20066;-90
2021/11/30 13:52:22;;;;;;;5.97;3.22;;;5.30;65.50;;;;;;4965395;28;20054;-89